Wergea, Netherlands
Current Conditions -  °F | °C
As of 12:09 PM on Friday 24 Oct 2014 (Local Time) from EHLW Reporting Station
Drizzle Drizzle  
Wind Chill: 52°   Ceiling: 1300
Heat Index: 52°   Visibility: 4mi
Dew Point: 50°   Wind: 13mph
Humidity: 94%   Direction: 180°S
Pressure: 30.03"   Gusts: NA
Location:  53.15°N, 5.84°E
Report Text: EHLW 241009Z AUTO 18011KT 6000 DZ FEW009 OVC013 11/10 Q1017 GRN 18012KT 8000 FEW010 OVC016 TEMPO 3500 RADZ FEW004 SCT006 BKN008
Loading
Personal Weather Stations






























Interactive Weather Map
Tropical Storm Tracking
New forecast layout! Learn more

10-Day Weather Forecast

Advertisements
Track Severe Weather on mobile